Terminal Aerodrome Forecast
Issued by NWS

Home | Current Version | Previous Version | Text Only | Print | Product List | Glossary On
Versions: 1 2 3 4 5 6 7 8 9 10 11 12 13 14 15 16
000
FTUS44 KCRP 112300
TAFALI
TAF
KALI 112323Z 1200/1224 13015KT P6SM SCT200
     FM120200 14009KT P6SM FEW025
     FM120700 13004KT P6SM SCT010 BKN250
      TEMPO 1209/1213 BKN010
     FM121400 15009KT P6SM SCT025
     FM122000 13013KT P6SM SCT050=

USA.gov is the U.S. government's official web portal to all federal, state and local government web resources and services.